sensor_id;sensor_type;location;lat;lon;timestamp;pressure;altitude;pressure_sealevel;temperature;humidity
57616;BME280;43816;52.054;-9.494;2023-05-17T00:00:07;102579.06;;;25.20;29.30
57616;BME280;43816;52.054;-9.494;2023-05-17T00:00:18;102594.56;;;25.29;29.54
57616;BME280;43816;52.054;-9.494;2023-05-17T00:00:28;102586.94;;;25.23;29.48
57616;BME280;43816;52.054;-9.494;2023-05-17T00:00:38;102591.25;;;25.25;29.38
57616;BME280;43816;52.054;-9.494;2023-05-17T00:00:48;102582.16;;;25.25;29.33
57616;BME280;43816;52.054;-9.494;2023-05-17T00:00:59;102597.31;;;25.29;29.13
57616;BME280;43816;52.054;-9.494;2023-05-17T00:01:09;102590.41;;;25.25;29.72
57616;BME280;43816;52.054;-9.494;2023-05-17T00:01:19;102588.50;;;25.25;29.42
57616;BME280;43816;52.054;-9.494;2023-05-17T00:01:30;102586.78;;;25.24;29.35
57616;BME280;43816;52.054;-9.494;2023-05-17T00:01:40;102577.47;;;25.17;29.66
57616;BME280;43816;52.054;-9.494;2023-05-17T00:01:51;102577.47;;;25.17;29.62
57616;BME280;43816;52.054;-9.494;2023-05-17T00:02:01;102580.41;;;25.24;29.38
57616;BME280;43816;52.054;-9.494;2023-05-17T00:02:12;102576.28;;;25.20;29.55
57616;BME280;43816;52.054;-9.494;2023-05-17T00:02:22;102584.34;;;25.21;29.44
57616;BME280;43816;52.054;-9.494;2023-05-17T00:02:32;102587.13;;;25.21;29.67
57616;BME280;43816;52.054;-9.494;2023-05-17T00:02:42;102581.81;;;25.20;29.66
57616;BME280;43816;52.054;-9.494;2023-05-17T00:02:53;102585.25;;;25.22;29.31
57616;BME280;43816;52.054;-9.494;2023-05-17T00:03:03;102555.25;;;25.02;29.44
57616;BME280;43816;52.054;-9.494;2023-05-17T00:03:13;102593.03;;;25.26;29.66
57616;BME280;43816;52.054;-9.494;2023-05-17T00:03:24;102571.78;;;25.10;29.66
57616;BME280;43816;52.054;-9.494;2023-05-17T00:03:34;102558.38;;;25.07;29.34
57616;BME280;43816;52.054;-9.494;2023-05-17T00:03:44;102581.09;;;25.18;29.47
57616;BME280;43816;52.054;-9.494;2023-05-17T00:03:54;102583.34;;;25.22;29.54
57616;BME280;43816;52.054;-9.494;2023-05-17T00:04:05;102582.81;;;25.19;29.53
57616;BME280;43816;52.054;-9.494;2023-05-17T00:04:15;102568.72;;;25.14;29.40
57616;BME280;43816;52.054;-9.494;2023-05-17T00:04:25;102577.81;;;25.14;29.64
57616;BME280;43816;52.054;-9.494;2023-05-17T00:04:36;102586.09;;;25.22;29.35
57616;BME280;43816;52.054;-9.494;2023-05-17T00:04:46;102586.09;;;25.22;29.51
57616;BME280;43816;52.054;-9.494;2023-05-17T00:04:56;102575.22;;;25.12;29.39
57616;BME280;43816;52.054;-9.494;2023-05-17T00:05:07;102568.03;;;25.11;29.40
57616;BME280;43816;52.054;-9.494;2023-05-17T00:05:18;102592.44;;;25.23;29.58
57616;BME280;43816;52.054;-9.494;2023-05-17T00:05:28;102583.16;;;25.16;29.39
57616;BME280;43816;52.054;-9.494;2023-05-17T00:05:38;102581.25;;;25.16;29.61
57616;BME280;43816;52.054;-9.494;2023-05-17T00:05:48;102586.75;;;25.16;29.64
57616;BME280;43816;52.054;-9.494;2023-05-17T00:05:59;102578.66;;;25.15;29.44
57616;BME280;43816;52.054;-9.494;2023-05-17T00:06:09;102569.53;;;25.06;29.26
57616;BME280;43816;52.054;-9.494;2023-05-17T00:06:19;102590.06;;;25.20;29.49
57616;BME280;43816;52.054;-9.494;2023-05-17T00:06:30;102588.34;;;25.19;29.63
57616;BME280;43816;52.054;-9.494;2023-05-17T00:06:40;102591.41;;;25.16;29.46
57616;BME280;43816;52.054;-9.494;2023-05-17T00:06:50;102579.03;;;25.11;29.79
57616;BME280;43816;52.054;-9.494;2023-05-17T00:07:00;102582.47;;;25.14;29.58
57616;BME280;43816;52.054;-9.494;2023-05-17T00:07:11;102593.16;;;25.17;29.61
57616;BME280;43816;52.054;-9.494;2023-05-17T00:07:21;102585.41;;;25.12;29.35
57616;BME280;43816;52.054;-9.494;2023-05-17T00:07:31;102594.00;;;25.17;29.60
57616;BME280;43816;52.054;-9.494;2023-05-17T00:07:42;102593.16;;;25.17;29.56
57616;BME280;43816;52.054;-9.494;2023-05-17T00:07:52;102587.66;;;25.17;29.69
57616;BME280;43816;52.054;-9.494;2023-05-17T00:08:02;102588.50;;;25.17;29.58
57616;BME280;43816;52.054;-9.494;2023-05-17T00:08:13;102568.00;;;25.03;29.64
57616;BME280;43816;52.054;-9.494;2023-05-17T00:08:23;102585.56;;;25.10;29.40
57616;BME280;43816;52.054;-9.494;2023-05-17T00:08:33;102585.91;;;25.16;29.71
57616;BME280;43816;52.054;-9.494;2023-05-17T00:08:43;102584.56;;;25.11;29.43
57616;BME280;43816;52.054;-9.494;2023-05-17T00:08:54;102575.22;;;25.04;29.51
57616;BME280;43816;52.054;-9.494;2023-05-17T00:09:04;102586.09;;;25.14;29.26
57616;BME280;43816;52.054;-9.494;2023-05-17T00:09:14;102583.16;;;25.07;29.56
57616;BME280;43816;52.054;-9.494;2023-05-17T00:09:24;102590.75;;;25.14;29.42
57616;BME280;43816;52.054;-9.494;2023-05-17T00:09:35;102584.19;;;25.06;29.40
57616;BME280;43816;52.054;-9.494;2023-05-17T00:09:45;102580.22;;;25.09;29.52
57616;BME280;43816;52.054;-9.494;2023-05-17T00:09:56;102571.78;;;25.02;29.73
57616;BME280;43816;52.054;-9.494;2023-05-17T00:10:06;102588.50;;;25.09;29.34
57616;BME280;43816;52.054;-9.494;2023-05-17T00:10:17;102586.94;;;25.06;29.37
57616;BME280;43816;52.054;-9.494;2023-05-17T00:10:27;102593.81;;;25.10;29.58
57616;BME280;43816;52.054;-9.494;2023-05-17T00:10:37;102593.16;;;25.08;29.66
57616;BME280;43816;52.054;-9.494;2023-05-17T00:10:47;102600.91;;;25.13;29.26
57616;BME280;43816;52.054;-9.494;2023-05-17T00:10:58;102598.16;;;25.13;29.50
57616;BME280;43816;52.054;-9.494;2023-05-17T00:11:08;102579.88;;;25.04;29.60
57616;BME280;43816;52.054;-9.494;2023-05-17T00:11:19;102582.81;;;25.02;29.58
57616;BME280;43816;52.054;-9.494;2023-05-17T00:11:29;102594.84;;;25.09;29.58
57616;BME280;43816;52.054;-9.494;2023-05-17T00:11:39;102586.25;;;25.04;29.44
57616;BME280;43816;52.054;-9.494;2023-05-17T00:11:49;102593.81;;;25.10;29.72
57616;BME280;43816;52.054;-9.494;2023-05-17T00:12:00;102589.00;;;25.04;29.37
57616;BME280;43816;52.054;-9.494;2023-05-17T00:12:28;102592.47;;;25.06;29.67
57616;BME280;43816;52.054;-9.494;2023-05-17T00:12:38;102594.16;;;25.07;29.62
57616;BME280;43816;52.054;-9.494;2023-05-17T00:12:49;102584.38;;;25.05;29.53
57616;BME280;43816;52.054;-9.494;2023-05-17T00:12:59;102564.53;;;24.93;29.48
57616;BME280;43816;52.054;-9.494;2023-05-17T00:13:09;102576.59;;;25.00;29.46
57616;BME280;43816;52.054;-9.494;2023-05-17T00:13:19;102569.69;;;24.96;29.38
57616;BME280;43816;52.054;-9.494;2023-05-17T00:13:30;102571.59;;;24.96;29.27
57616;BME280;43816;52.054;-9.494;2023-05-17T00:13:40;102579.53;;;24.99;29.41
57616;BME280;43816;52.054;-9.494;2023-05-17T00:13:50;102592.47;;;25.06;29.56
57616;BME280;43816;52.054;-9.494;2023-05-17T00:14:01;102590.38;;;25.08;29.72
57616;BME280;43816;52.054;-9.494;2023-05-17T00:14:11;102584.53;;;25.03;29.49
57616;BME280;43816;52.054;-9.494;2023-05-17T00:14:21;102587.47;;;25.10;29.71
57616;BME280;43816;52.054;-9.494;2023-05-17T00:14:31;102580.38;;;24.99;29.46
57616;BME280;43816;52.054;-9.494;2023-05-17T00:14:42;102594.84;;;25.09;29.44
57616;BME280;43816;52.054;-9.494;2023-05-17T00:14:52;102566.78;;;24.98;29.30
57616;BME280;43816;52.054;-9.494;2023-05-17T00:15:03;102593.16;;;25.08;29.43
57616;BME280;43816;52.054;-9.494;2023-05-17T00:15:14;102585.91;;;25.07;29.40
57616;BME280;43816;52.054;-9.494;2023-05-17T00:15:24;102589.50;;;25.08;29.59
57616;BME280;43816;52.054;-9.494;2023-05-17T00:15:34;102578.84;;;25.05;29.52
57616;BME280;43816;52.054;-9.494;2023-05-17T00:15:44;102565.06;;;24.97;29.48
57616;BME280;43816;52.054;-9.494;2023-05-17T00:15:55;102585.06;;;25.07;29.43
57616;BME280;43816;52.054;-9.494;2023-05-17T00:16:05;102577.97;;;25.04;29.41
57616;BME280;43816;52.054;-9.494;2023-05-17T00:16:16;102573.69;;;25.02;29.27
57616;BME280;43816;52.054;-9.494;2023-05-17T00:16:26;102558.34;;;24.91;29.64
57616;BME280;43816;52.054;-9.494;2023-05-17T00:16:37;102583.16;;;25.07;29.67
57616;BME280;43816;52.054;-9.494;2023-05-17T00:16:47;102562.66;;;24.93;29.51
57616;BME280;43816;52.054;-9.494;2023-05-17T00:16:57;102580.22;;;25.01;29.59
57616;BME280;43816;52.054;-9.494;2023-05-17T00:17:07;102577.28;;;25.02;29.63
57616;BME280;43816;52.054;-9.494;2023-05-17T00:17:18;102579.34;;;25.00;29.36
57616;BME280;43816;52.054;-9.494;2023-05-17T00:17:28;102559.91;;;24.93;29.44
57616;BME280;43816;52.054;-9.494;2023-05-17T00:17:39;102547.66;;;24.88;29.38
57616;BME280;43816;52.054;-9.494;2023-05-17T00:17:49;102569.53;;;24.98;29.42
57616;BME280;43816;52.054;-9.494;2023-05-17T00:17:59;102563.50;;;24.94;29.38
57616;BME280;43816;52.054;-9.494;2023-05-17T00:18:09;102549.41;;;24.89;29.56
57616;BME280;43816;52.054;-9.494;2023-05-17T00:18:20;102566.94;;;24.96;29.30
57616;BME280;43816;52.054;-9.494;2023-05-17T00:18:30;102558.16;;;24.92;29.69
57616;BME280;43816;52.054;-9.494;2023-05-17T00:18:40;102576.97;;;25.05;29.42
57616;BME280;43816;52.054;-9.494;2023-05-17T00:18:51;102534.94;;;24.79;29.63
57616;BME280;43816;52.054;-9.494;2023-05-17T00:19:01;102564.19;;;24.96;29.38
57616;BME280;43816;52.054;-9.494;2023-05-17T00:19:11;102565.06;;;24.97;29.67
57616;BME280;43816;52.054;-9.494;2023-05-17T00:19:21;102584.53;;;25.03;29.53
57616;BME280;43816;52.054;-9.494;2023-05-17T00:19:32;102569.53;;;24.98;29.46
57616;BME280;43816;52.054;-9.494;2023-05-17T00:19:42;102569.69;;;24.96;29.57
57616;BME280;43816;52.054;-9.494;2023-05-17T00:19:52;102561.97;;;24.91;29.34
57616;BME280;43816;52.054;-9.494;2023-05-17T00:20:03;102560.59;;;24.96;29.39
57616;BME280;43816;52.054;-9.494;2023-05-17T00:20:14;102568.16;;;24.93;29.61
57616;BME280;43816;52.054;-9.494;2023-05-17T00:20:24;102554.06;;;24.88;29.28
57616;BME280;43816;52.054;-9.494;2023-05-17T00:20:34;102563.69;;;24.92;29.52
57616;BME280;43816;52.054;-9.494;2023-05-17T00:20:45;102553.53;;;24.85;29.59
57616;BME280;43816;52.054;-9.494;2023-05-17T00:20:55;102575.22;;;24.96;29.45
57616;BME280;43816;52.054;-9.494;2023-05-17T00:21:05;102569.00;;;24.94;29.66
57616;BME280;43816;52.054;-9.494;2023-05-17T00:21:16;102565.41;;;24.93;29.53
57616;BME280;43816;52.054;-9.494;2023-05-17T00:21:26;102571.44;;;24.97;29.24
57616;BME280;43816;52.054;-9.494;2023-05-17T00:21:36;102583.81;;;25.01;29.53
57616;BME280;43816;52.054;-9.494;2023-05-17T00:21:47;102582.13;;;25.00;29.43
57616;BME280;43816;52.054;-9.494;2023-05-17T00:21:57;102581.44;;;24.98;29.96
57616;BME280;43816;52.054;-9.494;2023-05-17T00:22:07;102576.94;;;24.97;29.33
57616;BME280;43816;52.054;-9.494;2023-05-17T00:22:18;102561.44;;;24.88;29.51
57616;BME280;43816;52.054;-9.494;2023-05-17T00:22:28;102574.00;;;24.90;29.34
57616;BME280;43816;52.054;-9.494;2023-05-17T00:22:38;102584.00;;;25.00;29.30
57616;BME280;43816;52.054;-9.494;2023-05-17T00:22:49;102577.09;;;24.96;29.61
57616;BME280;43816;52.054;-9.494;2023-05-17T00:22:59;102560.38;;;24.81;29.41
57616;BME280;43816;52.054;-9.494;2023-05-17T00:23:09;102564.19;;;24.88;29.65
57616;BME280;43816;52.054;-9.494;2023-05-17T00:23:19;102567.81;;;24.88;29.30
57616;BME280;43816;52.054;-9.494;2023-05-17T00:23:30;102567.47;;;24.91;29.51
57616;BME280;43816;52.054;-9.494;2023-05-17T00:23:40;102573.84;;;24.92;29.52
57616;BME280;43816;52.054;-9.494;2023-05-17T00:23:50;102562.63;;;24.85;29.54
57616;BME280;43816;52.054;-9.494;2023-05-17T00:24:01;102574.84;;;24.91;29.43
57616;BME280;43816;52.054;-9.494;2023-05-17T00:24:11;102574.50;;;24.86;29.57
57616;BME280;43816;52.054;-9.494;2023-05-17T00:24:21;102569.00;;;24.86;29.44
57616;BME280;43816;52.054;-9.494;2023-05-17T00:24:31;102556.94;;;24.79;29.39
57616;BME280;43816;52.054;-9.494;2023-05-17T00:24:42;102567.28;;;24.85;29.35
57616;BME280;43816;52.054;-9.494;2023-05-17T00:24:52;102568.16;;;24.85;29.38
57616;BME280;43816;52.054;-9.494;2023-05-17T00:25:03;102557.97;;;24.78;29.42
57616;BME280;43816;52.054;-9.494;2023-05-17T00:25:13;102584.69;;;24.93;29.36
57616;BME280;43816;52.054;-9.494;2023-05-17T00:25:23;102570.22;;;24.83;29.46
57616;BME280;43816;52.054;-9.494;2023-05-17T00:25:34;102583.63;;;24.94;29.76
57616;BME280;43816;52.054;-9.494;2023-05-17T00:25:44;102576.94;;;24.89;29.56
57616;BME280;43816;52.054;-9.494;2023-05-17T00:25:54;102582.94;;;24.92;29.43
57616;BME280;43816;52.054;-9.494;2023-05-17T00:26:04;102569.16;;;24.84;29.54
57616;BME280;43816;52.054;-9.494;2023-05-17T00:26:15;102563.13;;;24.81;29.63
57616;BME280;43816;52.054;-9.494;2023-05-17T00:26:25;102574.50;;;24.86;29.46
57616;BME280;43816;52.054;-9.494;2023-05-17T00:26:35;102587.44;;;24.93;29.39
57616;BME280;43816;52.054;-9.494;2023-05-17T00:26:45;102538.31;;;24.64;29.58
57616;BME280;43816;52.054;-9.494;2023-05-17T00:26:56;102551.09;;;24.73;29.52
57616;BME280;43816;52.054;-9.494;2023-05-17T00:27:06;102566.75;;;24.81;29.58
57616;BME280;43816;52.054;-9.494;2023-05-17T00:27:16;102568.16;;;24.85;29.57
57616;BME280;43816;52.054;-9.494;2023-05-17T00:27:27;102542.47;;;24.68;29.51
57616;BME280;43816;52.054;-9.494;2023-05-17T00:27:37;102577.09;;;24.87;29.45
57616;BME280;43816;52.054;-9.494;2023-05-17T00:27:47;102540.06;;;24.65;29.47
57616;BME280;43816;52.054;-9.494;2023-05-17T00:27:57;102565.91;;;24.81;29.42
57616;BME280;43816;52.054;-9.494;2023-05-17T00:28:08;102540.91;;;24.66;29.53
57616;BME280;43816;52.054;-9.494;2023-05-17T00:28:18;102572.09;;;24.83;29.37
57616;BME280;43816;52.054;-9.494;2023-05-17T00:28:28;102559.03;;;24.77;29.76
57616;BME280;43816;52.054;-9.494;2023-05-17T00:28:38;102586.75;;;24.91;29.66
57616;BME280;43816;52.054;-9.494;2023-05-17T00:28:49;102558.13;;;24.76;29.53
57616;BME280;43816;52.054;-9.494;2023-05-17T00:28:59;102553.84;;;24.73;29.41
57616;BME280;43816;52.054;-9.494;2023-05-17T00:29:10;102577.59;;;24.83;29.50
57616;BME280;43816;52.054;-9.494;2023-05-17T00:29:20;102576.56;;;24.84;29.37
57616;BME280;43816;52.054;-9.494;2023-05-17T00:29:31;102566.91;;;24.80;29.40
57616;BME280;43816;52.054;-9.494;2023-05-17T00:29:41;102569.34;;;24.83;29.35
57616;BME280;43816;52.054;-9.494;2023-05-17T00:29:51;102584.50;;;24.87;29.37
57616;BME280;43816;52.054;-9.494;2023-05-17T00:30:02;102570.38;;;24.82;29.62
57616;BME280;43816;52.054;-9.494;2023-05-17T00:30:12;102582.06;;;24.84;29.60
57616;BME280;43816;52.054;-9.494;2023-05-17T00:30:23;102578.31;;;24.85;29.31
57616;BME280;43816;52.054;-9.494;2023-05-17T00:30:33;102584.34;;;24.88;29.50
57616;BME280;43816;52.054;-9.494;2023-05-17T00:30:43;102572.63;;;24.78;29.30
57616;BME280;43816;52.054;-9.494;2023-05-17T00:30:53;102570.03;;;24.77;29.55
57616;BME280;43816;52.054;-9.494;2023-05-17T00:31:04;102568.13;;;24.77;29.40
57616;BME280;43816;52.054;-9.494;2023-05-17T00:31:14;102568.28;;;24.75;29.66
57616;BME280;43816;52.054;-9.494;2023-05-17T00:31:24;102571.41;;;24.81;29.47
57616;BME280;43816;52.054;-9.494;2023-05-17T00:31:35;102581.22;;;24.83;29.47
57616;BME280;43816;52.054;-9.494;2023-05-17T00:31:45;102583.81;;;24.85;29.39
57616;BME280;43816;52.054;-9.494;2023-05-17T00:31:55;102553.66;;;24.67;29.46
57616;BME280;43816;52.054;-9.494;2023-05-17T00:32:06;102574.00;;;24.82;29.55
57616;BME280;43816;52.054;-9.494;2023-05-17T00:32:16;102573.47;;;24.79;29.67
57616;BME280;43816;52.054;-9.494;2023-05-17T00:32:26;102578.13;;;24.78;29.61
57616;BME280;43816;52.054;-9.494;2023-05-17T00:32:37;102570.03;;;24.77;29.40
57616;BME280;43816;52.054;-9.494;2023-05-17T00:32:47;102573.47;;;24.79;29.46
57616;BME280;43816;52.054;-9.494;2023-05-17T00:32:57;102583.81;;;24.85;29.64
57616;BME280;43816;52.054;-9.494;2023-05-17T00:33:07;102577.91;;;24.80;29.71
57616;BME280;43816;52.054;-9.494;2023-05-17T00:33:18;102572.41;;;24.80;29.56
57616;BME280;43816;52.054;-9.494;2023-05-17T00:33:28;102563.28;;;24.71;29.68
57616;BME280;43816;52.054;-9.494;2023-05-17T00:33:38;102575.53;;;24.77;29.55
57616;BME280;43816;52.054;-9.494;2023-05-17T00:33:49;102573.63;;;24.77;29.51
57616;BME280;43816;52.054;-9.494;2023-05-17T00:33:59;102565.88;;;24.72;29.52
57616;BME280;43816;52.054;-9.494;2023-05-17T00:34:09;102566.56;;;24.74;29.41
57616;BME280;43816;52.054;-9.494;2023-05-17T00:34:19;102578.97;;;24.79;29.65
57616;BME280;43816;52.054;-9.494;2023-05-17T00:34:30;102582.25;;;24.82;29.75
57616;BME280;43816;52.054;-9.494;2023-05-17T00:34:40;102568.63;;;24.72;29.64
57616;BME280;43816;52.054;-9.494;2023-05-17T00:34:50;102570.38;;;24.73;29.59
57616;BME280;43816;52.054;-9.494;2023-05-17T00:35:01;102573.81;;;24.75;29.25
57616;BME280;43816;52.054;-9.494;2023-05-17T00:35:11;102569.47;;;24.73;29.51
57616;BME280;43816;52.054;-9.494;2023-05-17T00:35:21;102555.72;;;24.65;29.43
57616;BME280;43816;52.054;-9.494;2023-05-17T00:35:32;102585.84;;;24.83;29.62
57616;BME280;43816;52.054;-9.494;2023-05-17T00:35:42;102574.13;;;24.72;29.74
57616;BME280;43816;52.054;-9.494;2023-05-17T00:35:53;102561.41;;;24.71;29.49
57616;BME280;43816;52.054;-9.494;2023-05-17T00:36:03;102576.38;;;24.77;29.48
57616;BME280;43816;52.054;-9.494;2023-05-17T00:36:14;102580.16;;;24.76;29.27
57616;BME280;43816;52.054;-9.494;2023-05-17T00:36:24;102565.72;;;24.74;29.56
57616;BME280;43816;52.054;-9.494;2023-05-17T00:36:34;102575.69;;;24.75;29.47
57616;BME280;43816;52.054;-9.494;2023-05-17T00:36:45;102575.53;;;24.77;29.38
57616;BME280;43816;52.054;-9.494;2023-05-17T00:36:55;102569.84;;;24.70;29.49
57616;BME280;43816;52.054;-9.494;2023-05-17T00:37:05;102552.41;;;24.61;29.35
57616;BME280;43816;52.054;-9.494;2023-05-17T00:37:15;102548.97;;;24.59;29.33
57616;BME280;43816;52.054;-9.494;2023-05-17T00:37:26;102578.97;;;24.79;29.38
57616;BME280;43816;52.054;-9.494;2023-05-17T00:37:36;102541.06;;;24.56;29.56
57616;BME280;43816;52.054;-9.494;2023-05-17T00:37:46;102523.28;;;24.42;29.38
57616;BME280;43816;52.054;-9.494;2023-05-17T00:37:56;102569.31;;;24.74;29.58
57616;BME280;43816;52.054;-9.494;2023-05-17T00:38:07;102578.44;;;24.75;29.66
57616;BME280;43816;52.054;-9.494;2023-05-17T00:38:17;102558.47;;;24.65;29.60
57616;BME280;43816;52.054;-9.494;2023-05-17T00:38:27;102539.66;;;24.52;29.42
57616;BME280;43816;52.054;-9.494;2023-05-17T00:38:38;102584.81;;;24.75;29.57
57616;BME280;43816;52.054;-9.494;2023-05-17T00:38:48;102566.53;;;24.66;29.57
57616;BME280;43816;52.054;-9.494;2023-05-17T00:38:58;102554.31;;;24.61;29.71
57616;BME280;43816;52.054;-9.494;2023-05-17T00:39:09;102558.47;;;24.65;29.40
57616;BME280;43816;52.054;-9.494;2023-05-17T00:39:19;102567.25;;;24.68;29.47
57616;BME280;43816;52.054;-9.494;2023-05-17T00:39:29;102546.75;;;24.63;29.42
57616;BME280;43816;52.054;-9.494;2023-05-17T00:39:40;102567.09;;;24.70;29.68
57616;BME280;43816;52.054;-9.494;2023-05-17T00:39:50;102573.97;;;24.74;29.59
57616;BME280;43816;52.054;-9.494;2023-05-17T00:40:00;102567.25;;;24.68;29.43
57616;BME280;43816;52.054;-9.494;2023-05-17T00:40:12;102560.00;;;24.67;29.57
57616;BME280;43816;52.054;-9.494;2023-05-17T00:40:22;102567.94;;;24.70;29.43
57616;BME280;43816;52.054;-9.494;2023-05-17T00:40:32;102566.38;;;24.68;29.36
57616;BME280;43816;52.054;-9.494;2023-05-17T00:40:43;102580.16;;;24.76;29.49
57616;BME280;43816;52.054;-9.494;2023-05-17T00:40:53;102577.56;;;24.74;29.48
57616;BME280;43816;52.054;-9.494;2023-05-17T00:41:03;102551.72;;;24.59;29.53
57616;BME280;43816;52.054;-9.494;2023-05-17T00:41:14;102581.22;;;24.75;29.35
57616;BME280;43816;52.054;-9.494;2023-05-17T00:41:24;102568.09;;;24.69;29.28
57616;BME280;43816;52.054;-9.494;2023-05-17T00:41:34;102578.63;;;24.73;29.59
57616;BME280;43816;52.054;-9.494;2023-05-17T00:41:44;102568.63;;;24.72;29.28
57616;BME280;43816;52.054;-9.494;2023-05-17T00:41:55;102579.31;;;24.75;29.68
57616;BME280;43816;52.054;-9.494;2023-05-17T00:42:05;102583.44;;;24.71;29.60
57616;BME280;43816;52.054;-9.494;2023-05-17T00:42:16;102570.00;;;24.68;29.64
57616;BME280;43816;52.054;-9.494;2023-05-17T00:42:26;102576.03;;;24.72;29.51
57616;BME280;43816;52.054;-9.494;2023-05-17T00:42:36;102558.66;;;24.63;29.61
57616;BME280;43816;52.054;-9.494;2023-05-17T00:42:46;102562.41;;;24.62;29.35
57616;BME280;43816;52.054;-9.494;2023-05-17T00:42:57;102573.44;;;24.70;29.64
57616;BME280;43816;52.054;-9.494;2023-05-17T00:43:07;102571.03;;;24.67;29.42
57616;BME280;43816;52.054;-9.494;2023-05-17T00:43:17;102568.44;;;24.66;29.59
57616;BME280;43816;52.054;-9.494;2023-05-17T00:43:28;102578.09;;;24.70;29.53
57616;BME280;43816;52.054;-9.494;2023-05-17T00:43:38;102565.00;;;24.64;29.36
57616;BME280;43816;52.054;-9.494;2023-05-17T00:43:49;102545.16;;;24.52;29.63
57616;BME280;43816;52.054;-9.494;2023-05-17T00:43:59;102572.75;;;24.68;29.46
57616;BME280;43816;52.054;-9.494;2023-05-17T00:44:09;102576.38;;;24.69;29.39
57616;BME280;43816;52.054;-9.494;2023-05-17T00:44:19;102558.28;;;24.58;29.36
57616;BME280;43816;52.054;-9.494;2023-05-17T00:44:30;102567.59;;;24.65;29.30
57616;BME280;43816;52.054;-9.494;2023-05-17T00:44:40;102569.97;;;24.60;29.69
57616;BME280;43816;52.054;-9.494;2023-05-17T00:44:50;102576.84;;;24.64;29.81
57616;BME280;43816;52.054;-9.494;2023-05-17T00:45:01;102571.53;;;24.63;29.54
57616;BME280;43816;52.054;-9.494;2023-05-17T00:45:11;102570.50;;;24.64;29.49
57616;BME280;43816;52.054;-9.494;2023-05-17T00:45:22;102579.28;;;24.67;29.66
57616;BME280;43816;52.054;-9.494;2023-05-17T00:45:32;102584.78;;;24.67;29.57
57616;BME280;43816;52.054;-9.494;2023-05-17T00:45:42;102564.63;;;24.59;29.50
57616;BME280;43816;52.054;-9.494;2023-05-17T00:45:52;102549.97;;;24.50;29.45
57616;BME280;43816;52.054;-9.494;2023-05-17T00:46:03;102565.25;;;24.52;29.50
57616;BME280;43816;52.054;-9.494;2023-05-17T00:46:13;102567.91;;;24.62;29.59
57616;BME280;43816;52.054;-9.494;2023-05-17T00:46:23;102575.16;;;24.63;29.34
57616;BME280;43816;52.054;-9.494;2023-05-17T00:46:34;102571.16;;;24.58;29.50
57616;BME280;43816;52.054;-9.494;2023-05-17T00:46:44;102573.41;;;24.62;29.32
57616;BME280;43816;52.054;-9.494;2023-05-17T00:46:54;102564.81;;;24.57;29.81
57616;BME280;43816;52.054;-9.494;2023-05-17T00:47:05;102576.00;;;24.64;29.52
57616;BME280;43816;52.054;-9.494;2023-05-17T00:47:15;102582.19;;;24.66;29.38
57616;BME280;43816;52.054;-9.494;2023-05-17T00:47:25;102576.69;;;24.66;29.56
57616;BME280;43816;52.054;-9.494;2023-05-17T00:47:36;102562.91;;;24.58;29.40
57616;BME280;43816;52.054;-9.494;2023-05-17T00:47:46;102552.16;;;24.46;29.53
57616;BME280;43816;52.054;-9.494;2023-05-17T00:47:56;102563.38;;;24.53;29.51
57616;BME280;43816;52.054;-9.494;2023-05-17T00:48:06;102581.50;;;24.64;29.49
57616;BME280;43816;52.054;-9.494;2023-05-17T00:48:17;102574.97;;;24.56;29.52
57616;BME280;43816;52.054;-9.494;2023-05-17T00:48:28;102580.81;;;24.62;29.15
57616;BME280;43816;52.054;-9.494;2023-05-17T00:48:39;102578.22;;;24.60;29.30
57616;BME280;43816;52.054;-9.494;2023-05-17T00:48:49;102573.75;;;24.59;29.47
57616;BME280;43816;52.054;-9.494;2023-05-17T00:49:00;102550.47;;;24.45;29.59
57616;BME280;43816;52.054;-9.494;2023-05-17T00:49:10;102583.41;;;24.63;29.51
57616;BME280;43816;52.054;-9.494;2023-05-17T00:49:21;102576.34;;;24.61;29.48
57616;BME280;43816;52.054;-9.494;2023-05-17T00:49:31;102568.72;;;24.54;29.34
57616;BME280;43816;52.054;-9.494;2023-05-17T00:49:42;102586.16;;;24.63;29.32
57616;BME280;43816;52.054;-9.494;2023-05-17T00:49:52;102564.25;;;24.53;29.48
57616;BME280;43816;52.054;-9.494;2023-05-17T00:50:04;102572.03;;;24.58;29.56
57616;BME280;43816;52.054;-9.494;2023-05-17T00:50:14;102575.66;;;24.59;29.62
57616;BME280;43816;52.054;-9.494;2023-05-17T00:50:25;102584.44;;;24.62;29.38
57616;BME280;43816;52.054;-9.494;2023-05-17T00:50:35;102580.09;;;24.60;29.68
57616;BME280;43816;52.054;-9.494;2023-05-17T00:50:46;102570.78;;;24.52;29.56
57616;BME280;43816;52.054;-9.494;2023-05-17T00:50:57;102575.81;;;24.57;29.49
57616;BME280;43816;52.054;-9.494;2023-05-17T00:51:08;102575.97;;;24.55;29.71
57616;BME280;43816;52.054;-9.494;2023-05-17T00:51:19;102571.47;;;24.54;29.57
57616;BME280;43816;52.054;-9.494;2023-05-17T00:51:30;102572.66;;;24.52;29.66
57616;BME280;43816;52.054;-9.494;2023-05-17T00:51:40;102560.25;;;24.48;29.50
57616;BME280;43816;52.054;-9.494;2023-05-17T00:51:52;102556.97;;;24.44;29.49
57616;BME280;43816;52.054;-9.494;2023-05-17T00:52:03;102576.81;;;24.56;29.47
57616;BME280;43816;52.054;-9.494;2023-05-17T00:52:13;102588.56;;;24.58;29.80
57616;BME280;43816;52.054;-9.494;2023-05-17T00:52:24;102581.84;;;24.61;29.60
57616;BME280;43816;52.054;-9.494;2023-05-17T00:52:35;102573.69;;;24.51;29.38
57616;BME280;43816;52.054;-9.494;2023-05-17T00:52:45;102560.41;;;24.46;29.48
57616;BME280;43816;52.054;-9.494;2023-05-17T00:52:56;102570.09;;;24.50;29.32
57616;BME280;43816;52.054;-9.494;2023-05-17T00:53:06;102577.88;;;24.55;29.25
57616;BME280;43816;52.054;-9.494;2023-05-17T00:53:18;102584.22;;;24.55;29.60
57616;BME280;43816;52.054;-9.494;2023-05-17T00:53:28;102586.81;;;24.57;29.61
57616;BME280;43816;52.054;-9.494;2023-05-17T00:53:39;102576.44;;;24.51;29.51
57616;BME280;43816;52.054;-9.494;2023-05-17T00:53:49;102561.47;;;24.45;29.47